<?xml version="1.0" encoding="UTF-8"?>
<gpx version="1.1" creator="https://www.youtrack.es" xsi:schemaLocation="http://www.topografix.com/GPX/1/1 http://www.topografix.com/GPX/1/1/gpx.xsd http://www.garmin.com/xmlschemas/GpxExtensions/v3 http://www.garmin.com/xmlschemas/GpxExtensionsv3.xsd http://www.garmin.com/xmlschemas/TrackPointExtension/v1 http://www.garmin.com/xmlschemas/TrackPointExtensionv1.xsd" xmlns:gpxtpx="http://www.garmin.com/xmlschemas/TrackPointExtension/v1" xmlns:gpxx="http://www.garmin.com/xmlschemas/GpxExtensions/v3" xmlns:xsi="http://www.w3.org/2001/XMLSchema-instance">
  <metadata>
    <link href="https://www.youtrack.es">
      <text>YouTrack.es</text>
    </link>
    <time>2026-05-10T11:52:26Z</time>
  </metadata>
  <trk>
    <src>https://www.youtrack.es</src>
    <link href="https://www.youtrack.es/ruta/20871-vng-ribes-plana-novella-per-vallgrassa-sitges-vng">
      <text>YouTrack.es</text>
    </link>
    <trkseg>
      <trkpt lat="41.230155" lon="1.723020">
        <ele>28.227</ele>
        <time>2021-04-04T08:51:41Z</time>
      </trkpt>
      <trkpt lat="41.230439" lon="1.724190">
        <ele>27.968</ele>
        <time>2021-04-04T08:52:08Z</time>
      </trkpt>
      <trkpt lat="41.230492" lon="1.725249">
        <ele>29.414</ele>
        <time>2021-04-04T08:52:34Z</time>
      </trkpt>
      <trkpt lat="41.230770" lon="1.725884">
        <ele>31.708</ele>
        <time>2021-04-04T08:52:52Z</time>
      </trkpt>
      <trkpt lat="41.230989" lon="1.726019">
        <ele>32.078</ele>
        <time>2021-04-04T08:53:03Z</time>
      </trkpt>
      <trkpt lat="41.232803" lon="1.725785">
        <ele>35.951</ele>
        <time>2021-04-04T08:53:59Z</time>
      </trkpt>
      <trkpt lat="41.233041" lon="1.726052">
        <ele>35.059</ele>
        <time>2021-04-04T08:54:12Z</time>
      </trkpt>
      <trkpt lat="41.233315" lon="1.728361">
        <ele>31.963</ele>
        <time>2021-04-04T08:54:57Z</time>
      </trkpt>
      <trkpt lat="41.234005" lon="1.730279">
        <ele>28.866</ele>
        <time>2021-04-04T08:55:23Z</time>
      </trkpt>
      <trkpt lat="41.234188" lon="1.731719">
        <ele>28.012</ele>
        <time>2021-04-04T08:55:44Z</time>
      </trkpt>
      <trkpt lat="41.234161" lon="1.733269">
        <ele>28.577</ele>
        <time>2021-04-04T08:56:09Z</time>
      </trkpt>
      <trkpt lat="41.233999" lon="1.733817">
        <ele>30.733</ele>
        <time>2021-04-04T08:56:20Z</time>
      </trkpt>
      <trkpt lat="41.234131" lon="1.737295">
        <ele>39.378</ele>
        <time>2021-04-04T08:57:28Z</time>
      </trkpt>
      <trkpt lat="41.234541" lon="1.738363">
        <ele>44.833</ele>
        <time>2021-04-04T08:57:53Z</time>
      </trkpt>
      <trkpt lat="41.234880" lon="1.738699">
        <ele>43.326</ele>
        <time>2021-04-04T08:58:03Z</time>
      </trkpt>
      <trkpt lat="41.235334" lon="1.738538">
        <ele>46.008</ele>
        <time>2021-04-04T08:58:21Z</time>
      </trkpt>
      <trkpt lat="41.236033" lon="1.739723">
        <ele>46.493</ele>
        <time>2021-04-04T08:59:00Z</time>
      </trkpt>
      <trkpt lat="41.236376" lon="1.742789">
        <ele>46.986</ele>
        <time>2021-04-04T08:59:53Z</time>
      </trkpt>
      <trkpt lat="41.237218" lon="1.746174">
        <ele>39.034</ele>
        <time>2021-04-04T09:00:43Z</time>
      </trkpt>
      <trkpt lat="41.237702" lon="1.746293">
        <ele>39.338</ele>
        <time>2021-04-04T09:01:00Z</time>
      </trkpt>
      <trkpt lat="41.238605" lon="1.748367">
        <ele>47.021</ele>
        <time>2021-04-04T09:01:55Z</time>
      </trkpt>
      <trkpt lat="41.239331" lon="1.748281">
        <ele>48.467</ele>
        <time>2021-04-04T09:02:29Z</time>
      </trkpt>
      <trkpt lat="41.240453" lon="1.747902">
        <ele>60.992</ele>
        <time>2021-04-04T09:03:20Z</time>
      </trkpt>
      <trkpt lat="41.240881" lon="1.748191">
        <ele>61.518</ele>
        <time>2021-04-04T09:03:41Z</time>
      </trkpt>
      <trkpt lat="41.241193" lon="1.749080">
        <ele>62.191</ele>
        <time>2021-04-04T09:04:05Z</time>
      </trkpt>
      <trkpt lat="41.241316" lon="1.750990">
        <ele>60.281</ele>
        <time>2021-04-04T09:04:37Z</time>
      </trkpt>
      <trkpt lat="41.242070" lon="1.754257">
        <ele>60.819</ele>
        <time>2021-04-04T09:05:37Z</time>
      </trkpt>
      <trkpt lat="41.244398" lon="1.757075">
        <ele>70.808</ele>
        <time>2021-04-04T09:07:09Z</time>
      </trkpt>
      <trkpt lat="41.244705" lon="1.758042">
        <ele>71.865</ele>
        <time>2021-04-04T09:07:26Z</time>
      </trkpt>
      <trkpt lat="41.246359" lon="1.759926">
        <ele>84.038</ele>
        <time>2021-04-04T09:08:45Z</time>
      </trkpt>
      <trkpt lat="41.246523" lon="1.760844">
        <ele>79.486</ele>
        <time>2021-04-04T09:09:08Z</time>
      </trkpt>
      <trkpt lat="41.246442" lon="1.761094">
        <ele>77.350</ele>
        <time>2021-04-04T09:09:15Z</time>
      </trkpt>
      <trkpt lat="41.245934" lon="1.761565">
        <ele>66.943</ele>
        <time>2021-04-04T09:09:30Z</time>
      </trkpt>
      <trkpt lat="41.245393" lon="1.762450">
        <ele>59.369</ele>
        <time>2021-04-04T09:09:49Z</time>
      </trkpt>
      <trkpt lat="41.243990" lon="1.763644">
        <ele>41.524</ele>
        <time>2021-04-04T09:10:20Z</time>
      </trkpt>
      <trkpt lat="41.243836" lon="1.763986">
        <ele>38.240</ele>
        <time>2021-04-04T09:10:27Z</time>
      </trkpt>
      <trkpt lat="41.244142" lon="1.764607">
        <ele>35.832</ele>
        <time>2021-04-04T09:10:40Z</time>
      </trkpt>
      <trkpt lat="41.246262" lon="1.766236">
        <ele>36.392</ele>
        <time>2021-04-04T09:11:38Z</time>
      </trkpt>
      <trkpt lat="41.247256" lon="1.767802">
        <ele>36.711</ele>
        <time>2021-04-04T09:12:17Z</time>
      </trkpt>
      <trkpt lat="41.248049" lon="1.768659">
        <ele>34.108</ele>
        <time>2021-04-04T09:12:39Z</time>
      </trkpt>
      <trkpt lat="41.248059" lon="1.770163">
        <ele>36.669</ele>
        <time>2021-04-04T09:13:12Z</time>
      </trkpt>
      <trkpt lat="41.247872" lon="1.770315">
        <ele>35.812</ele>
        <time>2021-04-04T09:13:19Z</time>
      </trkpt>
      <trkpt lat="41.247643" lon="1.770944">
        <ele>33.960</ele>
        <time>2021-04-04T09:13:37Z</time>
      </trkpt>
      <trkpt lat="41.247707" lon="1.771862">
        <ele>34.914</ele>
        <time>2021-04-04T09:13:53Z</time>
      </trkpt>
      <trkpt lat="41.247530" lon="1.772411">
        <ele>32.547</ele>
        <time>2021-04-04T09:14:06Z</time>
      </trkpt>
      <trkpt lat="41.248559" lon="1.774957">
        <ele>27.893</ele>
        <time>2021-04-04T09:14:56Z</time>
      </trkpt>
      <trkpt lat="41.249186" lon="1.775565">
        <ele>28.148</ele>
        <time>2021-04-04T09:15:18Z</time>
      </trkpt>
      <trkpt lat="41.250456" lon="1.777897">
        <ele>27.264</ele>
        <time>2021-04-04T09:16:14Z</time>
      </trkpt>
      <trkpt lat="41.251418" lon="1.778894">
        <ele>29.261</ele>
        <time>2021-04-04T09:16:50Z</time>
      </trkpt>
      <trkpt lat="41.251943" lon="1.780683">
        <ele>30.021</ele>
        <time>2021-04-04T09:17:30Z</time>
      </trkpt>
      <trkpt lat="41.252415" lon="1.781552">
        <ele>30.813</ele>
        <time>2021-04-04T09:17:49Z</time>
      </trkpt>
      <trkpt lat="41.252688" lon="1.781620">
        <ele>29.708</ele>
        <time>2021-04-04T09:17:56Z</time>
      </trkpt>
      <trkpt lat="41.253165" lon="1.781466">
        <ele>29.612</ele>
        <time>2021-04-04T09:18:06Z</time>
      </trkpt>
      <trkpt lat="41.254661" lon="1.780543">
        <ele>32.275</ele>
        <time>2021-04-04T09:18:45Z</time>
      </trkpt>
      <trkpt lat="41.255460" lon="1.780487">
        <ele>30.193</ele>
        <time>2021-04-04T09:19:03Z</time>
      </trkpt>
      <trkpt lat="41.255667" lon="1.780813">
        <ele>31.737</ele>
        <time>2021-04-04T09:19:12Z</time>
      </trkpt>
      <trkpt lat="41.255613" lon="1.781838">
        <ele>35.060</ele>
        <time>2021-04-04T09:19:35Z</time>
      </trkpt>
      <trkpt lat="41.255255" lon="1.782051">
        <ele>35.786</ele>
        <time>2021-04-04T09:19:50Z</time>
      </trkpt>
      <trkpt lat="41.255006" lon="1.782615">
        <ele>39.491</ele>
        <time>2021-04-04T09:20:06Z</time>
      </trkpt>
      <trkpt lat="41.255349" lon="1.785252">
        <ele>38.217</ele>
        <time>2021-04-04T09:20:53Z</time>
      </trkpt>
      <trkpt lat="41.256344" lon="1.786759">
        <ele>39.622</ele>
        <time>2021-04-04T09:21:32Z</time>
      </trkpt>
      <trkpt lat="41.256870" lon="1.788032">
        <ele>38.462</ele>
        <time>2021-04-04T09:21:59Z</time>
      </trkpt>
      <trkpt lat="41.257637" lon="1.788655">
        <ele>40.708</ele>
        <time>2021-04-04T09:22:17Z</time>
      </trkpt>
      <trkpt lat="41.257520" lon="1.788788">
        <ele>40.708</ele>
        <time>2021-04-04T09:22:21Z</time>
      </trkpt>
      <trkpt lat="41.256854" lon="1.788715">
        <ele>39.158</ele>
        <time>2021-04-04T09:22:41Z</time>
      </trkpt>
      <trkpt lat="41.256452" lon="1.788954">
        <ele>40.451</ele>
        <time>2021-04-04T09:22:56Z</time>
      </trkpt>
      <trkpt lat="41.257122" lon="1.789051">
        <ele>41.739</ele>
        <time>2021-04-04T09:23:21Z</time>
      </trkpt>
      <trkpt lat="41.257436" lon="1.789354">
        <ele>43.583</ele>
        <time>2021-04-04T09:23:38Z</time>
      </trkpt>
      <trkpt lat="41.257599" lon="1.792422">
        <ele>53.196</ele>
        <time>2021-04-04T09:25:00Z</time>
      </trkpt>
      <trkpt lat="41.257258" lon="1.793397">
        <ele>56.942</ele>
        <time>2021-04-04T09:25:26Z</time>
      </trkpt>
      <trkpt lat="41.257357" lon="1.794244">
        <ele>58.727</ele>
        <time>2021-04-04T09:25:47Z</time>
      </trkpt>
      <trkpt lat="41.257188" lon="1.795233">
        <ele>57.873</ele>
        <time>2021-04-04T09:26:06Z</time>
      </trkpt>
      <trkpt lat="41.257613" lon="1.797168">
        <ele>53.422</ele>
        <time>2021-04-04T09:26:37Z</time>
      </trkpt>
      <trkpt lat="41.258026" lon="1.797860">
        <ele>56.262</ele>
        <time>2021-04-04T09:26:53Z</time>
      </trkpt>
      <trkpt lat="41.258218" lon="1.802425">
        <ele>74.308</ele>
        <time>2021-04-04T09:28:46Z</time>
      </trkpt>
      <trkpt lat="41.259006" lon="1.808055">
        <ele>82.908</ele>
        <time>2021-04-04T09:30:44Z</time>
      </trkpt>
      <trkpt lat="41.259301" lon="1.808410">
        <ele>80.568</ele>
        <time>2021-04-04T09:30:57Z</time>
      </trkpt>
      <trkpt lat="41.259219" lon="1.808834">
        <ele>83.181</ele>
        <time>2021-04-04T09:31:07Z</time>
      </trkpt>
      <trkpt lat="41.258603" lon="1.809577">
        <ele>89.289</ele>
        <time>2021-04-04T09:31:37Z</time>
      </trkpt>
      <trkpt lat="41.258136" lon="1.810928">
        <ele>99.693</ele>
        <time>2021-04-04T09:32:13Z</time>
      </trkpt>
      <trkpt lat="41.259226" lon="1.814941">
        <ele>114.386</ele>
        <time>2021-04-04T09:34:13Z</time>
      </trkpt>
      <trkpt lat="41.259248" lon="1.816557">
        <ele>130.752</ele>
        <time>2021-04-04T09:35:34Z</time>
      </trkpt>
      <trkpt lat="41.259692" lon="1.817439">
        <ele>137.267</ele>
        <time>2021-04-04T09:36:26Z</time>
      </trkpt>
      <trkpt lat="41.259632" lon="1.818452">
        <ele>148.333</ele>
        <time>2021-04-04T09:37:12Z</time>
      </trkpt>
      <trkpt lat="41.260304" lon="1.820796">
        <ele>166.555</ele>
        <time>2021-04-04T09:39:15Z</time>
      </trkpt>
      <trkpt lat="41.259992" lon="1.822287">
        <ele>181.507</ele>
        <time>2021-04-04T09:40:21Z</time>
      </trkpt>
      <trkpt lat="41.260329" lon="1.826688">
        <ele>192.117</ele>
        <time>2021-04-04T09:42:35Z</time>
      </trkpt>
      <trkpt lat="41.260735" lon="1.827328">
        <ele>197.808</ele>
        <time>2021-04-04T09:43:00Z</time>
      </trkpt>
      <trkpt lat="41.261900" lon="1.828298">
        <ele>207.181</ele>
        <time>2021-04-04T09:44:02Z</time>
      </trkpt>
      <trkpt lat="41.262307" lon="1.829575">
        <ele>216.974</ele>
        <time>2021-04-04T09:44:47Z</time>
      </trkpt>
      <trkpt lat="41.261649" lon="1.831751">
        <ele>226.152</ele>
        <time>2021-04-04T09:47:41Z</time>
      </trkpt>
      <trkpt lat="41.262005" lon="1.832196">
        <ele>223.016</ele>
        <time>2021-04-04T09:47:54Z</time>
      </trkpt>
      <trkpt lat="41.262848" lon="1.832208">
        <ele>221.829</ele>
        <time>2021-04-04T09:48:21Z</time>
      </trkpt>
      <trkpt lat="41.263252" lon="1.832532">
        <ele>223.325</ele>
        <time>2021-04-04T09:48:40Z</time>
      </trkpt>
      <trkpt lat="41.263255" lon="1.832813">
        <ele>224.310</ele>
        <time>2021-04-04T09:48:49Z</time>
      </trkpt>
      <trkpt lat="41.262750" lon="1.833742">
        <ele>231.086</ele>
        <time>2021-04-04T09:49:13Z</time>
      </trkpt>
      <trkpt lat="41.262749" lon="1.834010">
        <ele>230.064</ele>
        <time>2021-04-04T09:49:18Z</time>
      </trkpt>
      <trkpt lat="41.263496" lon="1.835444">
        <ele>229.406</ele>
        <time>2021-04-04T09:49:51Z</time>
      </trkpt>
      <trkpt lat="41.263641" lon="1.835615">
        <ele>231.616</ele>
        <time>2021-04-04T09:49:58Z</time>
      </trkpt>
      <trkpt lat="41.263971" lon="1.835573">
        <ele>235.708</ele>
        <time>2021-04-04T09:50:12Z</time>
      </trkpt>
      <trkpt lat="41.264296" lon="1.835723">
        <ele>238.852</ele>
        <time>2021-04-04T09:50:28Z</time>
      </trkpt>
      <trkpt lat="41.264578" lon="1.836579">
        <ele>241.245</ele>
        <time>2021-04-04T09:51:00Z</time>
      </trkpt>
      <trkpt lat="41.265106" lon="1.837529">
        <ele>242.233</ele>
        <time>2021-04-04T09:51:28Z</time>
      </trkpt>
      <trkpt lat="41.265266" lon="1.837688">
        <ele>241.637</ele>
        <time>2021-04-04T09:51:34Z</time>
      </trkpt>
      <trkpt lat="41.265655" lon="1.837677">
        <ele>242.310</ele>
        <time>2021-04-04T09:51:45Z</time>
      </trkpt>
      <trkpt lat="41.265779" lon="1.837857">
        <ele>242.346</ele>
        <time>2021-04-04T09:51:50Z</time>
      </trkpt>
      <trkpt lat="41.265932" lon="1.838735">
        <ele>242.041</ele>
        <time>2021-04-04T09:52:11Z</time>
      </trkpt>
      <trkpt lat="41.266348" lon="1.839467">
        <ele>241.397</ele>
        <time>2021-04-04T09:52:32Z</time>
      </trkpt>
      <trkpt lat="41.267750" lon="1.840243">
        <ele>247.948</ele>
        <time>2021-04-04T09:53:17Z</time>
      </trkpt>
      <trkpt lat="41.267872" lon="1.840423">
        <ele>249.061</ele>
        <time>2021-04-04T09:53:24Z</time>
      </trkpt>
      <trkpt lat="41.267956" lon="1.841631">
        <ele>249.317</ele>
        <time>2021-04-04T09:54:03Z</time>
      </trkpt>
      <trkpt lat="41.268916" lon="1.841466">
        <ele>254.408</ele>
        <time>2021-04-04T09:54:27Z</time>
      </trkpt>
      <trkpt lat="41.269782" lon="1.841668">
        <ele>248.070</ele>
        <time>2021-04-04T09:54:45Z</time>
      </trkpt>
      <trkpt lat="41.270552" lon="1.841550">
        <ele>239.993</ele>
        <time>2021-04-04T09:55:02Z</time>
      </trkpt>
      <trkpt lat="41.270788" lon="1.841763">
        <ele>238.111</ele>
        <time>2021-04-04T09:55:09Z</time>
      </trkpt>
      <trkpt lat="41.271043" lon="1.842350">
        <ele>240.755</ele>
        <time>2021-04-04T09:55:20Z</time>
      </trkpt>
      <trkpt lat="41.271171" lon="1.843416">
        <ele>241.898</ele>
        <time>2021-04-04T09:55:38Z</time>
      </trkpt>
      <trkpt lat="41.271580" lon="1.844073">
        <ele>243.614</ele>
        <time>2021-04-04T09:55:53Z</time>
      </trkpt>
      <trkpt lat="41.270836" lon="1.846223">
        <ele>242.549</ele>
        <time>2021-04-04T09:56:38Z</time>
      </trkpt>
      <trkpt lat="41.271484" lon="1.847321">
        <ele>240.795</ele>
        <time>2021-04-04T09:57:05Z</time>
      </trkpt>
      <trkpt lat="41.271365" lon="1.849181">
        <ele>231.937</ele>
        <time>2021-04-04T09:57:36Z</time>
      </trkpt>
      <trkpt lat="41.271912" lon="1.849693">
        <ele>239.049</ele>
        <time>2021-04-04T09:57:50Z</time>
      </trkpt>
      <trkpt lat="41.272025" lon="1.850177">
        <ele>231.813</ele>
        <time>2021-04-04T09:57:58Z</time>
      </trkpt>
      <trkpt lat="41.270507" lon="1.852046">
        <ele>226.408</ele>
        <time>2021-04-04T09:58:34Z</time>
      </trkpt>
      <trkpt lat="41.270552" lon="1.852770">
        <ele>224.039</ele>
        <time>2021-04-04T09:58:47Z</time>
      </trkpt>
      <trkpt lat="41.270433" lon="1.853222">
        <ele>221.352</ele>
        <time>2021-04-04T09:58:54Z</time>
      </trkpt>
      <trkpt lat="41.269685" lon="1.854188">
        <ele>217.260</ele>
        <time>2021-04-04T09:59:15Z</time>
      </trkpt>
      <trkpt lat="41.269213" lon="1.855492">
        <ele>216.914</ele>
        <time>2021-04-04T09:59:33Z</time>
      </trkpt>
      <trkpt lat="41.269010" lon="1.856415">
        <ele>218.597</ele>
        <time>2021-04-04T09:59:48Z</time>
      </trkpt>
      <trkpt lat="41.268979" lon="1.857890">
        <ele>224.143</ele>
        <time>2021-04-04T10:00:23Z</time>
      </trkpt>
      <trkpt lat="41.269762" lon="1.860891">
        <ele>243.148</ele>
        <time>2021-04-04T10:02:04Z</time>
      </trkpt>
      <trkpt lat="41.269336" lon="1.862493">
        <ele>244.444</ele>
        <time>2021-04-04T10:02:47Z</time>
      </trkpt>
      <trkpt lat="41.269616" lon="1.863261">
        <ele>245.413</ele>
        <time>2021-04-04T10:03:05Z</time>
      </trkpt>
      <trkpt lat="41.269503" lon="1.864281">
        <ele>241.243</ele>
        <time>2021-04-04T10:03:21Z</time>
      </trkpt>
      <trkpt lat="41.268095" lon="1.867356">
        <ele>236.307</ele>
        <time>2021-04-04T10:04:20Z</time>
      </trkpt>
      <trkpt lat="41.267625" lon="1.868007">
        <ele>236.908</ele>
        <time>2021-04-04T10:04:36Z</time>
      </trkpt>
      <trkpt lat="41.267043" lon="1.872069">
        <ele>231.457</ele>
        <time>2021-04-04T10:05:47Z</time>
      </trkpt>
      <trkpt lat="41.267668" lon="1.872778">
        <ele>238.220</ele>
        <time>2021-04-04T10:06:24Z</time>
      </trkpt>
      <trkpt lat="41.268163" lon="1.872619">
        <ele>248.668</ele>
        <time>2021-04-04T10:06:52Z</time>
      </trkpt>
      <trkpt lat="41.268402" lon="1.872729">
        <ele>252.952</ele>
        <time>2021-04-04T10:07:11Z</time>
      </trkpt>
      <trkpt lat="41.269344" lon="1.874735">
        <ele>269.795</ele>
        <time>2021-04-04T10:09:00Z</time>
      </trkpt>
      <trkpt lat="41.269942" lon="1.874802">
        <ele>267.191</ele>
        <time>2021-04-04T10:09:16Z</time>
      </trkpt>
      <trkpt lat="41.270811" lon="1.874335">
        <ele>275.026</ele>
        <time>2021-04-04T10:09:48Z</time>
      </trkpt>
      <trkpt lat="41.271050" lon="1.874416">
        <ele>276.662</ele>
        <time>2021-04-04T10:09:54Z</time>
      </trkpt>
      <trkpt lat="41.271303" lon="1.875968">
        <ele>273.837</ele>
        <time>2021-04-04T10:10:32Z</time>
      </trkpt>
      <trkpt lat="41.271780" lon="1.876474">
        <ele>276.349</ele>
        <time>2021-04-04T10:10:44Z</time>
      </trkpt>
      <trkpt lat="41.271940" lon="1.877178">
        <ele>269.513</ele>
        <time>2021-04-04T10:11:02Z</time>
      </trkpt>
      <trkpt lat="41.272106" lon="1.877243">
        <ele>271.708</ele>
        <time>2021-04-04T10:11:09Z</time>
      </trkpt>
      <trkpt lat="41.272464" lon="1.876911">
        <ele>278.889</ele>
        <time>2021-04-04T10:11:26Z</time>
      </trkpt>
      <trkpt lat="41.273663" lon="1.876615">
        <ele>284.792</ele>
        <time>2021-04-04T10:12:15Z</time>
      </trkpt>
      <trkpt lat="41.274439" lon="1.875429">
        <ele>292.490</ele>
        <time>2021-04-04T10:13:13Z</time>
      </trkpt>
      <trkpt lat="41.275133" lon="1.875239">
        <ele>293.014</ele>
        <time>2021-04-04T10:13:39Z</time>
      </trkpt>
      <trkpt lat="41.276411" lon="1.874411">
        <ele>305.377</ele>
        <time>2021-04-04T10:14:41Z</time>
      </trkpt>
      <trkpt lat="41.276744" lon="1.874635">
        <ele>302.553</ele>
        <time>2021-04-04T10:14:55Z</time>
      </trkpt>
      <trkpt lat="41.277859" lon="1.874368">
        <ele>305.928</ele>
        <time>2021-04-04T10:15:26Z</time>
      </trkpt>
      <trkpt lat="41.277954" lon="1.874551">
        <ele>305.534</ele>
        <time>2021-04-04T10:15:31Z</time>
      </trkpt>
      <trkpt lat="41.277751" lon="1.875068">
        <ele>299.818</ele>
        <time>2021-04-04T10:15:46Z</time>
      </trkpt>
      <trkpt lat="41.278244" lon="1.876107">
        <ele>314.498</ele>
        <time>2021-04-04T10:16:32Z</time>
      </trkpt>
      <trkpt lat="41.278574" lon="1.876326">
        <ele>322.217</ele>
        <time>2021-04-04T10:16:58Z</time>
      </trkpt>
      <trkpt lat="41.279127" lon="1.876225">
        <ele>323.908</ele>
        <time>2021-04-04T10:17:40Z</time>
      </trkpt>
      <trkpt lat="41.279841" lon="1.876645">
        <ele>321.777</ele>
        <time>2021-04-04T10:18:49Z</time>
      </trkpt>
      <trkpt lat="41.280853" lon="1.876724">
        <ele>311.110</ele>
        <time>2021-04-04T10:19:10Z</time>
      </trkpt>
      <trkpt lat="41.282171" lon="1.876082">
        <ele>302.938</ele>
        <time>2021-04-04T10:19:36Z</time>
      </trkpt>
      <trkpt lat="41.283085" lon="1.876451">
        <ele>295.442</ele>
        <time>2021-04-04T10:19:52Z</time>
      </trkpt>
      <trkpt lat="41.283871" lon="1.876472">
        <ele>292.525</ele>
        <time>2021-04-04T10:20:05Z</time>
      </trkpt>
      <trkpt lat="41.284534" lon="1.876844">
        <ele>285.971</ele>
        <time>2021-04-04T10:20:18Z</time>
      </trkpt>
      <trkpt lat="41.285418" lon="1.876292">
        <ele>285.766</ele>
        <time>2021-04-04T10:20:38Z</time>
      </trkpt>
      <trkpt lat="41.285511" lon="1.876091">
        <ele>285.282</ele>
        <time>2021-04-04T10:22:04Z</time>
      </trkpt>
      <trkpt lat="41.285875" lon="1.876045">
        <ele>280.612</ele>
        <time>2021-04-04T10:22:15Z</time>
      </trkpt>
      <trkpt lat="41.286534" lon="1.874905">
        <ele>277.132</ele>
        <time>2021-04-04T10:22:38Z</time>
      </trkpt>
      <trkpt lat="41.287058" lon="1.874639">
        <ele>274.305</ele>
        <time>2021-04-04T10:22:50Z</time>
      </trkpt>
      <trkpt lat="41.287181" lon="1.874311">
        <ele>273.408</ele>
        <time>2021-04-04T10:22:55Z</time>
      </trkpt>
      <trkpt lat="41.286915" lon="1.873224">
        <ele>270.467</ele>
        <time>2021-04-04T10:23:42Z</time>
      </trkpt>
      <trkpt lat="41.287129" lon="1.871968">
        <ele>271.020</ele>
        <time>2021-04-04T10:24:19Z</time>
      </trkpt>
      <trkpt lat="41.286821" lon="1.871699">
        <ele>267.258</ele>
        <time>2021-04-04T10:24:27Z</time>
      </trkpt>
      <trkpt lat="41.286212" lon="1.871627">
        <ele>264.122</ele>
        <time>2021-04-04T10:24:39Z</time>
      </trkpt>
      <trkpt lat="41.285984" lon="1.871115">
        <ele>264.965</ele>
        <time>2021-04-04T10:24:48Z</time>
      </trkpt>
      <trkpt lat="41.286436" lon="1.870464">
        <ele>262.531</ele>
        <time>2021-04-04T10:25:01Z</time>
      </trkpt>
      <trkpt lat="41.286991" lon="1.868361">
        <ele>258.466</ele>
        <time>2021-04-04T10:25:33Z</time>
      </trkpt>
      <trkpt lat="41.287673" lon="1.867844">
        <ele>255.382</ele>
        <time>2021-04-04T10:25:52Z</time>
      </trkpt>
      <trkpt lat="41.288673" lon="1.866134">
        <ele>254.369</ele>
        <time>2021-04-04T10:26:24Z</time>
      </trkpt>
      <trkpt lat="41.289020" lon="1.865906">
        <ele>252.804</ele>
        <time>2021-04-04T10:26:36Z</time>
      </trkpt>
      <trkpt lat="41.289775" lon="1.865917">
        <ele>249.824</ele>
        <time>2021-04-04T10:26:50Z</time>
      </trkpt>
      <trkpt lat="41.290126" lon="1.865680">
        <ele>251.008</ele>
        <time>2021-04-04T10:26:57Z</time>
      </trkpt>
      <trkpt lat="41.290765" lon="1.864574">
        <ele>248.792</ele>
        <time>2021-04-04T10:27:15Z</time>
      </trkpt>
      <trkpt lat="41.291281" lon="1.864432">
        <ele>247.925</ele>
        <time>2021-04-04T10:27:28Z</time>
      </trkpt>
      <trkpt lat="41.291557" lon="1.863761">
        <ele>247.733</ele>
        <time>2021-04-04T10:27:40Z</time>
      </trkpt>
      <trkpt lat="41.291940" lon="1.863712">
        <ele>246.197</ele>
        <time>2021-04-04T10:27:49Z</time>
      </trkpt>
      <trkpt lat="41.292054" lon="1.863233">
        <ele>246.280</ele>
        <time>2021-04-04T10:27:59Z</time>
      </trkpt>
      <trkpt lat="41.292951" lon="1.862651">
        <ele>240.656</ele>
        <time>2021-04-04T10:28:20Z</time>
      </trkpt>
      <trkpt lat="41.293244" lon="1.862029">
        <ele>237.521</ele>
        <time>2021-04-04T10:28:34Z</time>
      </trkpt>
      <trkpt lat="41.293256" lon="1.859561">
        <ele>246.117</ele>
        <time>2021-04-04T10:31:22Z</time>
      </trkpt>
      <trkpt lat="41.293026" lon="1.858983">
        <ele>248.963</ele>
        <time>2021-04-04T10:31:45Z</time>
      </trkpt>
      <trkpt lat="41.292564" lon="1.858619">
        <ele>249.644</ele>
        <time>2021-04-04T10:31:59Z</time>
      </trkpt>
      <trkpt lat="41.293147" lon="1.857314">
        <ele>253.818</ele>
        <time>2021-04-04T10:32:33Z</time>
      </trkpt>
      <trkpt lat="41.293911" lon="1.856847">
        <ele>255.908</ele>
        <time>2021-04-04T10:33:01Z</time>
      </trkpt>
      <trkpt lat="41.294221" lon="1.856395">
        <ele>259.582</ele>
        <time>2021-04-04T10:33:21Z</time>
      </trkpt>
      <trkpt lat="41.294563" lon="1.854642">
        <ele>270.715</ele>
        <time>2021-04-04T10:34:27Z</time>
      </trkpt>
      <trkpt lat="41.293865" lon="1.852984">
        <ele>267.463</ele>
        <time>2021-04-04T10:35:11Z</time>
      </trkpt>
      <trkpt lat="41.293533" lon="1.852618">
        <ele>271.257</ele>
        <time>2021-04-04T10:35:29Z</time>
      </trkpt>
      <trkpt lat="41.292209" lon="1.852560">
        <ele>279.670</ele>
        <time>2021-04-04T10:36:41Z</time>
      </trkpt>
      <trkpt lat="41.291517" lon="1.852019">
        <ele>280.336</ele>
        <time>2021-04-04T10:37:16Z</time>
      </trkpt>
      <trkpt lat="41.291024" lon="1.852525">
        <ele>273.631</ele>
        <time>2021-04-04T10:37:42Z</time>
      </trkpt>
      <trkpt lat="41.291494" lon="1.853109">
        <ele>278.117</ele>
        <time>2021-04-04T10:38:48Z</time>
      </trkpt>
      <trkpt lat="41.291471" lon="1.853122">
        <ele>278.032</ele>
        <time>2021-04-04T10:52:34Z</time>
      </trkpt>
      <trkpt lat="41.291006" lon="1.852451">
        <ele>272.892</ele>
        <time>2021-04-04T10:54:29Z</time>
      </trkpt>
      <trkpt lat="41.289762" lon="1.853089">
        <ele>261.311</ele>
        <time>2021-04-04T10:54:58Z</time>
      </trkpt>
      <trkpt lat="41.287687" lon="1.855571">
        <ele>247.108</ele>
        <time>2021-04-04T10:55:45Z</time>
      </trkpt>
      <trkpt lat="41.287095" lon="1.855706">
        <ele>247.579</ele>
        <time>2021-04-04T10:55:56Z</time>
      </trkpt>
      <trkpt lat="41.286607" lon="1.856199">
        <ele>248.962</ele>
        <time>2021-04-04T10:56:07Z</time>
      </trkpt>
      <trkpt lat="41.286443" lon="1.856131">
        <ele>248.250</ele>
        <time>2021-04-04T10:56:11Z</time>
      </trkpt>
      <trkpt lat="41.286308" lon="1.854727">
        <ele>249.274</ele>
        <time>2021-04-04T10:56:38Z</time>
      </trkpt>
      <trkpt lat="41.286830" lon="1.852662">
        <ele>251.477</ele>
        <time>2021-04-04T10:57:27Z</time>
      </trkpt>
      <trkpt lat="41.286234" lon="1.852040">
        <ele>249.354</ele>
        <time>2021-04-04T10:57:42Z</time>
      </trkpt>
      <trkpt lat="41.285890" lon="1.850965">
        <ele>251.122</ele>
        <time>2021-04-04T10:58:06Z</time>
      </trkpt>
      <trkpt lat="41.285529" lon="1.848884">
        <ele>250.177</ele>
        <time>2021-04-04T10:58:41Z</time>
      </trkpt>
      <trkpt lat="41.285041" lon="1.848043">
        <ele>249.532</ele>
        <time>2021-04-04T10:58:55Z</time>
      </trkpt>
      <trkpt lat="41.284747" lon="1.846362">
        <ele>250.392</ele>
        <time>2021-04-04T10:59:23Z</time>
      </trkpt>
      <trkpt lat="41.284809" lon="1.845594">
        <ele>252.211</ele>
        <time>2021-04-04T10:59:37Z</time>
      </trkpt>
      <trkpt lat="41.285299" lon="1.844433">
        <ele>247.708</ele>
        <time>2021-04-04T10:59:59Z</time>
      </trkpt>
      <trkpt lat="41.285323" lon="1.843256">
        <ele>237.519</ele>
        <time>2021-04-04T11:00:17Z</time>
      </trkpt>
      <trkpt lat="41.285656" lon="1.841915">
        <ele>229.772</ele>
        <time>2021-04-04T11:00:36Z</time>
      </trkpt>
      <trkpt lat="41.285671" lon="1.841076">
        <ele>230.640</ele>
        <time>2021-04-04T11:00:47Z</time>
      </trkpt>
      <trkpt lat="41.285038" lon="1.840099">
        <ele>220.934</ele>
        <time>2021-04-04T11:01:03Z</time>
      </trkpt>
      <trkpt lat="41.284874" lon="1.839134">
        <ele>216.857</ele>
        <time>2021-04-04T11:01:15Z</time>
      </trkpt>
      <trkpt lat="41.284504" lon="1.838484">
        <ele>207.744</ele>
        <time>2021-04-04T11:01:28Z</time>
      </trkpt>
      <trkpt lat="41.283990" lon="1.838497">
        <ele>201.052</ele>
        <time>2021-04-04T11:01:37Z</time>
      </trkpt>
      <trkpt lat="41.283497" lon="1.837927">
        <ele>196.027</ele>
        <time>2021-04-04T11:01:45Z</time>
      </trkpt>
      <trkpt lat="41.283433" lon="1.837594">
        <ele>199.842</ele>
        <time>2021-04-04T11:01:49Z</time>
      </trkpt>
      <trkpt lat="41.283746" lon="1.836186">
        <ele>196.122</ele>
        <time>2021-04-04T11:02:10Z</time>
      </trkpt>
      <trkpt lat="41.283062" lon="1.835208">
        <ele>187.314</ele>
        <time>2021-04-04T11:02:29Z</time>
      </trkpt>
      <trkpt lat="41.282390" lon="1.835408">
        <ele>184.608</ele>
        <time>2021-04-04T11:02:41Z</time>
      </trkpt>
      <trkpt lat="41.282083" lon="1.834935">
        <ele>182.740</ele>
        <time>2021-04-04T11:02:49Z</time>
      </trkpt>
      <trkpt lat="41.281906" lon="1.834957">
        <ele>182.863</ele>
        <time>2021-04-04T11:02:54Z</time>
      </trkpt>
      <trkpt lat="41.281433" lon="1.836098">
        <ele>172.221</ele>
        <time>2021-04-04T11:04:03Z</time>
      </trkpt>
      <trkpt lat="41.280814" lon="1.837089">
        <ele>160.095</ele>
        <time>2021-04-04T11:04:27Z</time>
      </trkpt>
      <trkpt lat="41.280167" lon="1.837607">
        <ele>152.618</ele>
        <time>2021-04-04T11:04:41Z</time>
      </trkpt>
      <trkpt lat="41.279978" lon="1.838079">
        <ele>150.025</ele>
        <time>2021-04-04T11:04:49Z</time>
      </trkpt>
      <trkpt lat="41.278895" lon="1.838952">
        <ele>143.263</ele>
        <time>2021-04-04T11:05:15Z</time>
      </trkpt>
      <trkpt lat="41.278746" lon="1.838473">
        <ele>145.688</ele>
        <time>2021-04-04T11:05:27Z</time>
      </trkpt>
      <trkpt lat="41.278792" lon="1.837759">
        <ele>149.499</ele>
        <time>2021-04-04T11:05:51Z</time>
      </trkpt>
      <trkpt lat="41.278066" lon="1.836804">
        <ele>149.807</ele>
        <time>2021-04-04T11:06:23Z</time>
      </trkpt>
      <trkpt lat="41.277568" lon="1.837151">
        <ele>155.027</ele>
        <time>2021-04-04T11:06:43Z</time>
      </trkpt>
      <trkpt lat="41.277174" lon="1.837047">
        <ele>156.708</ele>
        <time>2021-04-04T11:06:57Z</time>
      </trkpt>
      <trkpt lat="41.276682" lon="1.837124">
        <ele>157.665</ele>
        <time>2021-04-04T11:07:16Z</time>
      </trkpt>
      <trkpt lat="41.275770" lon="1.837615">
        <ele>166.468</ele>
        <time>2021-04-04T11:07:52Z</time>
      </trkpt>
      <trkpt lat="41.275547" lon="1.837607">
        <ele>165.456</ele>
        <time>2021-04-04T11:07:59Z</time>
      </trkpt>
      <trkpt lat="41.275494" lon="1.837183">
        <ele>169.180</ele>
        <time>2021-04-04T11:08:11Z</time>
      </trkpt>
      <trkpt lat="41.276140" lon="1.836085">
        <ele>173.033</ele>
        <time>2021-04-04T11:09:03Z</time>
      </trkpt>
      <trkpt lat="41.275847" lon="1.835372">
        <ele>179.480</ele>
        <time>2021-04-04T11:09:34Z</time>
      </trkpt>
      <trkpt lat="41.274545" lon="1.836867">
        <ele>190.048</ele>
        <time>2021-04-04T11:10:51Z</time>
      </trkpt>
      <trkpt lat="41.272696" lon="1.839532">
        <ele>210.243</ele>
        <time>2021-04-04T11:13:14Z</time>
      </trkpt>
      <trkpt lat="41.271365" lon="1.841002">
        <ele>234.876</ele>
        <time>2021-04-04T11:15:12Z</time>
      </trkpt>
      <trkpt lat="41.270300" lon="1.841683">
        <ele>242.690</ele>
        <time>2021-04-04T11:16:16Z</time>
      </trkpt>
      <trkpt lat="41.269618" lon="1.841689">
        <ele>246.519</ele>
        <time>2021-04-04T11:16:47Z</time>
      </trkpt>
      <trkpt lat="41.268690" lon="1.841471">
        <ele>254.908</ele>
        <time>2021-04-04T11:17:20Z</time>
      </trkpt>
      <trkpt lat="41.268021" lon="1.841703">
        <ele>248.913</ele>
        <time>2021-04-04T11:18:01Z</time>
      </trkpt>
      <trkpt lat="41.267738" lon="1.840271">
        <ele>247.446</ele>
        <time>2021-04-04T11:18:43Z</time>
      </trkpt>
      <trkpt lat="41.266315" lon="1.839514">
        <ele>240.584</ele>
        <time>2021-04-04T11:19:05Z</time>
      </trkpt>
      <trkpt lat="41.265824" lon="1.838613">
        <ele>240.958</ele>
        <time>2021-04-04T11:19:22Z</time>
      </trkpt>
      <trkpt lat="41.265724" lon="1.837845">
        <ele>241.981</ele>
        <time>2021-04-04T11:19:32Z</time>
      </trkpt>
      <trkpt lat="41.265209" lon="1.837759">
        <ele>240.948</ele>
        <time>2021-04-04T11:19:44Z</time>
      </trkpt>
      <trkpt lat="41.264520" lon="1.836470">
        <ele>240.846</ele>
        <time>2021-04-04T11:20:14Z</time>
      </trkpt>
      <trkpt lat="41.264330" lon="1.835819">
        <ele>239.731</ele>
        <time>2021-04-04T11:20:26Z</time>
      </trkpt>
      <trkpt lat="41.263560" lon="1.835586">
        <ele>230.615</ele>
        <time>2021-04-04T11:20:43Z</time>
      </trkpt>
      <trkpt lat="41.263249" lon="1.835052">
        <ele>226.565</ele>
        <time>2021-04-04T11:20:50Z</time>
      </trkpt>
      <trkpt lat="41.262748" lon="1.833919">
        <ele>230.311</ele>
        <time>2021-04-04T11:21:04Z</time>
      </trkpt>
      <trkpt lat="41.263154" lon="1.832908">
        <ele>226.208</ele>
        <time>2021-04-04T11:21:22Z</time>
      </trkpt>
      <trkpt lat="41.263181" lon="1.832493">
        <ele>224.117</ele>
        <time>2021-04-04T11:21:29Z</time>
      </trkpt>
      <trkpt lat="41.262901" lon="1.832220">
        <ele>222.080</ele>
        <time>2021-04-04T11:21:36Z</time>
      </trkpt>
      <trkpt lat="41.262114" lon="1.832302">
        <ele>223.548</ele>
        <time>2021-04-04T11:21:56Z</time>
      </trkpt>
      <trkpt lat="41.261803" lon="1.832003">
        <ele>224.262</ele>
        <time>2021-04-04T11:22:04Z</time>
      </trkpt>
      <trkpt lat="41.261787" lon="1.831634">
        <ele>222.055</ele>
        <time>2021-04-04T11:22:10Z</time>
      </trkpt>
      <trkpt lat="41.262333" lon="1.829988">
        <ele>215.172</ele>
        <time>2021-04-04T11:22:32Z</time>
      </trkpt>
      <trkpt lat="41.261903" lon="1.828367">
        <ele>208.090</ele>
        <time>2021-04-04T11:22:55Z</time>
      </trkpt>
      <trkpt lat="41.260062" lon="1.826912">
        <ele>189.695</ele>
        <time>2021-04-04T11:23:33Z</time>
      </trkpt>
      <trkpt lat="41.259591" lon="1.826026">
        <ele>180.426</ele>
        <time>2021-04-04T11:23:54Z</time>
      </trkpt>
      <trkpt lat="41.259250" lon="1.825728">
        <ele>178.347</ele>
        <time>2021-04-04T11:24:00Z</time>
      </trkpt>
      <trkpt lat="41.258860" lon="1.825726">
        <ele>170.511</ele>
        <time>2021-04-04T11:24:07Z</time>
      </trkpt>
      <trkpt lat="41.258626" lon="1.826186">
        <ele>163.308</ele>
        <time>2021-04-04T11:24:15Z</time>
      </trkpt>
      <trkpt lat="41.258368" lon="1.826310">
        <ele>159.938</ele>
        <time>2021-04-04T11:24:20Z</time>
      </trkpt>
      <trkpt lat="41.257950" lon="1.826282">
        <ele>154.261</ele>
        <time>2021-04-04T11:24:27Z</time>
      </trkpt>
      <trkpt lat="41.257764" lon="1.826109">
        <ele>152.769</ele>
        <time>2021-04-04T11:24:31Z</time>
      </trkpt>
      <trkpt lat="41.257389" lon="1.825340">
        <ele>146.023</ele>
        <time>2021-04-04T11:24:42Z</time>
      </trkpt>
      <trkpt lat="41.257541" lon="1.824469">
        <ele>143.126</ele>
        <time>2021-04-04T11:24:54Z</time>
      </trkpt>
      <trkpt lat="41.257354" lon="1.823597">
        <ele>140.513</ele>
        <time>2021-04-04T11:25:07Z</time>
      </trkpt>
      <trkpt lat="41.256069" lon="1.822419">
        <ele>122.481</ele>
        <time>2021-04-04T11:25:31Z</time>
      </trkpt>
      <trkpt lat="41.254394" lon="1.819696">
        <ele>98.836</ele>
        <time>2021-04-04T11:26:29Z</time>
      </trkpt>
      <trkpt lat="41.254112" lon="1.817810">
        <ele>86.025</ele>
        <time>2021-04-04T11:27:37Z</time>
      </trkpt>
      <trkpt lat="41.253494" lon="1.815998">
        <ele>78.426</ele>
        <time>2021-04-04T11:28:03Z</time>
      </trkpt>
      <trkpt lat="41.252725" lon="1.815113">
        <ele>75.408</ele>
        <time>2021-04-04T11:28:21Z</time>
      </trkpt>
      <trkpt lat="41.250383" lon="1.813254">
        <ele>67.108</ele>
        <time>2021-04-04T11:29:29Z</time>
      </trkpt>
      <trkpt lat="41.248203" lon="1.811773">
        <ele>61.658</ele>
        <time>2021-04-04T11:30:49Z</time>
      </trkpt>
      <trkpt lat="41.248679" lon="1.810630">
        <ele>67.051</ele>
        <time>2021-04-04T11:31:29Z</time>
      </trkpt>
      <trkpt lat="41.249494" lon="1.810133">
        <ele>73.829</ele>
        <time>2021-04-04T11:31:59Z</time>
      </trkpt>
      <trkpt lat="41.249691" lon="1.809829">
        <ele>74.853</ele>
        <time>2021-04-04T11:32:10Z</time>
      </trkpt>
      <trkpt lat="41.249715" lon="1.809458">
        <ele>74.956</ele>
        <time>2021-04-04T11:32:21Z</time>
      </trkpt>
      <trkpt lat="41.249404" lon="1.808438">
        <ele>73.113</ele>
        <time>2021-04-04T11:32:46Z</time>
      </trkpt>
      <trkpt lat="41.249483" lon="1.807142">
        <ele>78.281</ele>
        <time>2021-04-04T11:33:15Z</time>
      </trkpt>
      <trkpt lat="41.249356" lon="1.806078">
        <ele>81.766</ele>
        <time>2021-04-04T11:33:45Z</time>
      </trkpt>
      <trkpt lat="41.249705" lon="1.804844">
        <ele>80.629</ele>
        <time>2021-04-04T11:34:08Z</time>
      </trkpt>
      <trkpt lat="41.250612" lon="1.803361">
        <ele>92.300</ele>
        <time>2021-04-04T11:34:58Z</time>
      </trkpt>
      <trkpt lat="41.251177" lon="1.801864">
        <ele>82.220</ele>
        <time>2021-04-04T11:35:36Z</time>
      </trkpt>
      <trkpt lat="41.251918" lon="1.801475">
        <ele>81.508</ele>
        <time>2021-04-04T11:35:51Z</time>
      </trkpt>
      <trkpt lat="41.252932" lon="1.800090">
        <ele>80.228</ele>
        <time>2021-04-04T11:36:43Z</time>
      </trkpt>
      <trkpt lat="41.254229" lon="1.797825">
        <ele>67.011</ele>
        <time>2021-04-04T11:37:53Z</time>
      </trkpt>
      <trkpt lat="41.255050" lon="1.797346">
        <ele>59.339</ele>
        <time>2021-04-04T11:38:24Z</time>
      </trkpt>
      <trkpt lat="41.254020" lon="1.795297">
        <ele>58.683</ele>
        <time>2021-04-04T11:39:10Z</time>
      </trkpt>
      <trkpt lat="41.253513" lon="1.794895">
        <ele>57.256</ele>
        <time>2021-04-04T11:39:22Z</time>
      </trkpt>
      <trkpt lat="41.252245" lon="1.794539">
        <ele>61.343</ele>
        <time>2021-04-04T11:39:50Z</time>
      </trkpt>
      <trkpt lat="41.251661" lon="1.794175">
        <ele>61.121</ele>
        <time>2021-04-04T11:40:05Z</time>
      </trkpt>
      <trkpt lat="41.251132" lon="1.793034">
        <ele>59.646</ele>
        <time>2021-04-04T11:40:30Z</time>
      </trkpt>
      <trkpt lat="41.250875" lon="1.792776">
        <ele>61.433</ele>
        <time>2021-04-04T11:40:38Z</time>
      </trkpt>
      <trkpt lat="41.251073" lon="1.792050">
        <ele>54.423</ele>
        <time>2021-04-04T11:40:51Z</time>
      </trkpt>
      <trkpt lat="41.250745" lon="1.791683">
        <ele>55.215</ele>
        <time>2021-04-04T11:41:00Z</time>
      </trkpt>
      <trkpt lat="41.249271" lon="1.791032">
        <ele>54.108</ele>
        <time>2021-04-04T11:41:36Z</time>
      </trkpt>
      <trkpt lat="41.248113" lon="1.791138">
        <ele>56.849</ele>
        <time>2021-04-04T11:42:05Z</time>
      </trkpt>
      <trkpt lat="41.246464" lon="1.790693">
        <ele>49.092</ele>
        <time>2021-04-04T11:42:38Z</time>
      </trkpt>
      <trkpt lat="41.245342" lon="1.789470">
        <ele>45.270</ele>
        <time>2021-04-04T11:43:20Z</time>
      </trkpt>
      <trkpt lat="41.244672" lon="1.788955">
        <ele>45.964</ele>
        <time>2021-04-04T11:43:38Z</time>
      </trkpt>
      <trkpt lat="41.243918" lon="1.789037">
        <ele>51.447</ele>
        <time>2021-04-04T11:44:01Z</time>
      </trkpt>
      <trkpt lat="41.243414" lon="1.789378">
        <ele>50.394</ele>
        <time>2021-04-04T11:44:24Z</time>
      </trkpt>
      <trkpt lat="41.242635" lon="1.789242">
        <ele>53.522</ele>
        <time>2021-04-04T11:44:47Z</time>
      </trkpt>
      <trkpt lat="41.242263" lon="1.787561">
        <ele>46.627</ele>
        <time>2021-04-04T11:45:27Z</time>
      </trkpt>
      <trkpt lat="41.241840" lon="1.787068">
        <ele>49.356</ele>
        <time>2021-04-04T11:45:51Z</time>
      </trkpt>
      <trkpt lat="41.241479" lon="1.786952">
        <ele>46.459</ele>
        <time>2021-04-04T11:46:04Z</time>
      </trkpt>
      <trkpt lat="41.241142" lon="1.787351">
        <ele>49.614</ele>
        <time>2021-04-04T11:46:22Z</time>
      </trkpt>
      <trkpt lat="41.240796" lon="1.787490">
        <ele>52.408</ele>
        <time>2021-04-04T11:46:37Z</time>
      </trkpt>
      <trkpt lat="41.240499" lon="1.788082">
        <ele>58.681</ele>
        <time>2021-04-04T11:47:29Z</time>
      </trkpt>
      <trkpt lat="41.239496" lon="1.787989">
        <ele>51.994</ele>
        <time>2021-04-04T11:47:57Z</time>
      </trkpt>
      <trkpt lat="41.237716" lon="1.786437">
        <ele>48.112</ele>
        <time>2021-04-04T11:48:51Z</time>
      </trkpt>
      <trkpt lat="41.236568" lon="1.786326">
        <ele>39.916</ele>
        <time>2021-04-04T11:49:19Z</time>
      </trkpt>
      <trkpt lat="41.236037" lon="1.785868">
        <ele>36.699</ele>
        <time>2021-04-04T11:49:32Z</time>
      </trkpt>
      <trkpt lat="41.233692" lon="1.785743">
        <ele>30.436</ele>
        <time>2021-04-04T11:50:06Z</time>
      </trkpt>
      <trkpt lat="41.233323" lon="1.785902">
        <ele>25.134</ele>
        <time>2021-04-04T11:50:11Z</time>
      </trkpt>
      <trkpt lat="41.232781" lon="1.786447">
        <ele>11.859</ele>
        <time>2021-04-04T11:50:20Z</time>
      </trkpt>
      <trkpt lat="41.232549" lon="1.786487">
        <ele>10.852</ele>
        <time>2021-04-04T11:50:24Z</time>
      </trkpt>
      <trkpt lat="41.232298" lon="1.785823">
        <ele>14.353</ele>
        <time>2021-04-04T11:50:36Z</time>
      </trkpt>
      <trkpt lat="41.231799" lon="1.785635">
        <ele>13.508</ele>
        <time>2021-04-04T11:50:46Z</time>
      </trkpt>
      <trkpt lat="41.231210" lon="1.784475">
        <ele>9.008</ele>
        <time>2021-04-04T11:51:03Z</time>
      </trkpt>
      <trkpt lat="41.230477" lon="1.782882">
        <ele>5.761</ele>
        <time>2021-04-04T11:51:27Z</time>
      </trkpt>
      <trkpt lat="41.230347" lon="1.782254">
        <ele>8.544</ele>
        <time>2021-04-04T11:51:37Z</time>
      </trkpt>
      <trkpt lat="41.231446" lon="1.779198">
        <ele>13.242</ele>
        <time>2021-04-04T11:52:25Z</time>
      </trkpt>
      <trkpt lat="41.231291" lon="1.777161">
        <ele>18.266</ele>
        <time>2021-04-04T11:53:03Z</time>
      </trkpt>
      <trkpt lat="41.230781" lon="1.776274">
        <ele>24.179</ele>
        <time>2021-04-04T11:53:33Z</time>
      </trkpt>
      <trkpt lat="41.228733" lon="1.775531">
        <ele>15.586</ele>
        <time>2021-04-04T11:54:11Z</time>
      </trkpt>
      <trkpt lat="41.227090" lon="1.775472">
        <ele>18.164</ele>
        <time>2021-04-04T11:54:43Z</time>
      </trkpt>
      <trkpt lat="41.226823" lon="1.775265">
        <ele>19.239</ele>
        <time>2021-04-04T11:54:52Z</time>
      </trkpt>
      <trkpt lat="41.226825" lon="1.773841">
        <ele>22.921</ele>
        <time>2021-04-04T11:55:18Z</time>
      </trkpt>
      <trkpt lat="41.226989" lon="1.773247">
        <ele>25.641</ele>
        <time>2021-04-04T11:55:31Z</time>
      </trkpt>
      <trkpt lat="41.227367" lon="1.772958">
        <ele>28.805</ele>
        <time>2021-04-04T11:55:44Z</time>
      </trkpt>
      <trkpt lat="41.228199" lon="1.772807">
        <ele>32.908</ele>
        <time>2021-04-04T11:56:07Z</time>
      </trkpt>
      <trkpt lat="41.228629" lon="1.772327">
        <ele>29.628</ele>
        <time>2021-04-04T11:56:20Z</time>
      </trkpt>
      <trkpt lat="41.228293" lon="1.770950">
        <ele>32.231</ele>
        <time>2021-04-04T11:56:47Z</time>
      </trkpt>
      <trkpt lat="41.228337" lon="1.770025">
        <ele>33.069</ele>
        <time>2021-04-04T11:57:03Z</time>
      </trkpt>
      <trkpt lat="41.228016" lon="1.769390">
        <ele>37.893</ele>
        <time>2021-04-04T11:57:17Z</time>
      </trkpt>
      <trkpt lat="41.227557" lon="1.769317">
        <ele>38.766</ele>
        <time>2021-04-04T11:57:29Z</time>
      </trkpt>
      <trkpt lat="41.226351" lon="1.770932">
        <ele>33.153</ele>
        <time>2021-04-04T11:58:10Z</time>
      </trkpt>
      <trkpt lat="41.225762" lon="1.769798">
        <ele>47.161</ele>
        <time>2021-04-04T11:58:54Z</time>
      </trkpt>
      <trkpt lat="41.225441" lon="1.769586">
        <ele>47.866</ele>
        <time>2021-04-04T11:59:12Z</time>
      </trkpt>
      <trkpt lat="41.225412" lon="1.769245">
        <ele>46.441</ele>
        <time>2021-04-04T11:59:22Z</time>
      </trkpt>
      <trkpt lat="41.225880" lon="1.769002">
        <ele>46.281</ele>
        <time>2021-04-04T11:59:39Z</time>
      </trkpt>
      <trkpt lat="41.226019" lon="1.768667">
        <ele>44.809</ele>
        <time>2021-04-04T11:59:45Z</time>
      </trkpt>
      <trkpt lat="41.224750" lon="1.766140">
        <ele>31.208</ele>
        <time>2021-04-04T12:00:19Z</time>
      </trkpt>
      <trkpt lat="41.225037" lon="1.764114">
        <ele>33.210</ele>
        <time>2021-04-04T12:00:51Z</time>
      </trkpt>
      <trkpt lat="41.224385" lon="1.763035">
        <ele>40.273</ele>
        <time>2021-04-04T12:01:32Z</time>
      </trkpt>
      <trkpt lat="41.223305" lon="1.762046">
        <ele>43.531</ele>
        <time>2021-04-04T12:02:12Z</time>
      </trkpt>
      <trkpt lat="41.223145" lon="1.761637">
        <ele>42.695</ele>
        <time>2021-04-04T12:02:20Z</time>
      </trkpt>
      <trkpt lat="41.223199" lon="1.760772">
        <ele>41.448</ele>
        <time>2021-04-04T12:02:30Z</time>
      </trkpt>
      <trkpt lat="41.223931" lon="1.758775">
        <ele>50.145</ele>
        <time>2021-04-04T12:03:22Z</time>
      </trkpt>
      <trkpt lat="41.223831" lon="1.758315">
        <ele>49.933</ele>
        <time>2021-04-04T12:03:31Z</time>
      </trkpt>
      <trkpt lat="41.223284" lon="1.757478">
        <ele>53.058</ele>
        <time>2021-04-04T12:04:07Z</time>
      </trkpt>
      <trkpt lat="41.223071" lon="1.756848">
        <ele>59.028</ele>
        <time>2021-04-04T12:05:38Z</time>
      </trkpt>
      <trkpt lat="41.221576" lon="1.759663">
        <ele>53.289</ele>
        <time>2021-04-04T12:07:28Z</time>
      </trkpt>
      <trkpt lat="41.221354" lon="1.759744">
        <ele>52.117</ele>
        <time>2021-04-04T12:07:50Z</time>
      </trkpt>
      <trkpt lat="41.221171" lon="1.759346">
        <ele>50.708</ele>
        <time>2021-04-04T12:08:13Z</time>
      </trkpt>
      <trkpt lat="41.221152" lon="1.758705">
        <ele>44.518</ele>
        <time>2021-04-04T12:09:10Z</time>
      </trkpt>
      <trkpt lat="41.221388" lon="1.758500">
        <ele>42.431</ele>
        <time>2021-04-04T12:10:02Z</time>
      </trkpt>
      <trkpt lat="41.221210" lon="1.757431">
        <ele>29.039</ele>
        <time>2021-04-04T12:11:30Z</time>
      </trkpt>
      <trkpt lat="41.221423" lon="1.757003">
        <ele>32.513</ele>
        <time>2021-04-04T12:11:47Z</time>
      </trkpt>
      <trkpt lat="41.221332" lon="1.756811">
        <ele>31.596</ele>
        <time>2021-04-04T12:11:52Z</time>
      </trkpt>
      <trkpt lat="41.220888" lon="1.756845">
        <ele>25.943</ele>
        <time>2021-04-04T12:12:01Z</time>
      </trkpt>
      <trkpt lat="41.220636" lon="1.756708">
        <ele>24.431</ele>
        <time>2021-04-04T12:12:07Z</time>
      </trkpt>
      <trkpt lat="41.220503" lon="1.756050">
        <ele>24.676</ele>
        <time>2021-04-04T12:12:21Z</time>
      </trkpt>
      <trkpt lat="41.220742" lon="1.755345">
        <ele>22.116</ele>
        <time>2021-04-04T12:12:35Z</time>
      </trkpt>
      <trkpt lat="41.221667" lon="1.754690">
        <ele>26.976</ele>
        <time>2021-04-04T12:12:57Z</time>
      </trkpt>
      <trkpt lat="41.221672" lon="1.754496">
        <ele>26.213</ele>
        <time>2021-04-04T12:13:02Z</time>
      </trkpt>
      <trkpt lat="41.221557" lon="1.753954">
        <ele>24.708</ele>
        <time>2021-04-04T12:13:12Z</time>
      </trkpt>
      <trkpt lat="41.220857" lon="1.753408">
        <ele>24.527</ele>
        <time>2021-04-04T12:13:36Z</time>
      </trkpt>
      <trkpt lat="41.220944" lon="1.752824">
        <ele>25.910</ele>
        <time>2021-04-04T12:13:57Z</time>
      </trkpt>
      <trkpt lat="41.220672" lon="1.752785">
        <ele>23.368</ele>
        <time>2021-04-04T12:14:13Z</time>
      </trkpt>
      <trkpt lat="41.220476" lon="1.752551">
        <ele>20.662</ele>
        <time>2021-04-04T12:14:22Z</time>
      </trkpt>
      <trkpt lat="41.220578" lon="1.752023">
        <ele>20.595</ele>
        <time>2021-04-04T12:14:36Z</time>
      </trkpt>
      <trkpt lat="41.220411" lon="1.750844">
        <ele>23.942</ele>
        <time>2021-04-04T12:15:09Z</time>
      </trkpt>
      <trkpt lat="41.220012" lon="1.750296">
        <ele>30.910</ele>
        <time>2021-04-04T12:16:11Z</time>
      </trkpt>
      <trkpt lat="41.220678" lon="1.749414">
        <ele>38.075</ele>
        <time>2021-04-04T12:17:03Z</time>
      </trkpt>
      <trkpt lat="41.221131" lon="1.749232">
        <ele>39.996</ele>
        <time>2021-04-04T12:17:23Z</time>
      </trkpt>
      <trkpt lat="41.221449" lon="1.748833">
        <ele>42.031</ele>
        <time>2021-04-04T12:17:41Z</time>
      </trkpt>
      <trkpt lat="41.221270" lon="1.747563">
        <ele>41.724</ele>
        <time>2021-04-04T12:18:08Z</time>
      </trkpt>
      <trkpt lat="41.220485" lon="1.746392">
        <ele>37.708</ele>
        <time>2021-04-04T12:18:32Z</time>
      </trkpt>
      <trkpt lat="41.220481" lon="1.745367">
        <ele>35.195</ele>
        <time>2021-04-04T12:18:46Z</time>
      </trkpt>
      <trkpt lat="41.220000" lon="1.744768">
        <ele>29.788</ele>
        <time>2021-04-04T12:18:57Z</time>
      </trkpt>
      <trkpt lat="41.219501" lon="1.742712">
        <ele>24.346</ele>
        <time>2021-04-04T12:19:22Z</time>
      </trkpt>
      <trkpt lat="41.218975" lon="1.741439">
        <ele>18.960</ele>
        <time>2021-04-04T12:19:47Z</time>
      </trkpt>
      <trkpt lat="41.218549" lon="1.741001">
        <ele>17.283</ele>
        <time>2021-04-04T12:20:08Z</time>
      </trkpt>
      <trkpt lat="41.218273" lon="1.739995">
        <ele>15.860</ele>
        <time>2021-04-04T12:20:32Z</time>
      </trkpt>
      <trkpt lat="41.217791" lon="1.739215">
        <ele>18.618</ele>
        <time>2021-04-04T12:20:52Z</time>
      </trkpt>
      <trkpt lat="41.217752" lon="1.738992">
        <ele>19.443</ele>
        <time>2021-04-04T12:20:57Z</time>
      </trkpt>
      <trkpt lat="41.218047" lon="1.738579">
        <ele>20.848</ele>
        <time>2021-04-04T12:21:09Z</time>
      </trkpt>
      <trkpt lat="41.217807" lon="1.737135">
        <ele>11.361</ele>
        <time>2021-04-04T12:21:27Z</time>
      </trkpt>
      <trkpt lat="41.217442" lon="1.737015">
        <ele>10.217</ele>
        <time>2021-04-04T12:21:36Z</time>
      </trkpt>
      <trkpt lat="41.217368" lon="1.736806">
        <ele>8.508</ele>
        <time>2021-04-04T12:21:40Z</time>
      </trkpt>
      <trkpt lat="41.217289" lon="1.735682">
        <ele>4.440</ele>
        <time>2021-04-04T12:21:57Z</time>
      </trkpt>
      <trkpt lat="41.216996" lon="1.735373">
        <ele>4.083</ele>
        <time>2021-04-04T12:22:09Z</time>
      </trkpt>
      <trkpt lat="41.216833" lon="1.734795">
        <ele>8.291</ele>
        <time>2021-04-04T12:22:19Z</time>
      </trkpt>
      <trkpt lat="41.214484" lon="1.725562">
        <ele>4.465</ele>
        <time>2021-04-04T12:26:10Z</time>
      </trkpt>
      <trkpt lat="41.214458" lon="1.724619">
        <ele>7.128</ele>
        <time>2021-04-04T12:26:54Z</time>
      </trkpt>
      <trkpt lat="41.213087" lon="1.720273">
        <ele>7.265</ele>
        <time>2021-04-04T12:28:26Z</time>
      </trkpt>
      <trkpt lat="41.212722" lon="1.717660">
        <ele>5.973</ele>
        <time>2021-04-04T12:29:05Z</time>
      </trkpt>
      <trkpt lat="41.211866" lon="1.715132">
        <ele>3.388</ele>
        <time>2021-04-04T12:29:53Z</time>
      </trkpt>
      <trkpt lat="41.211877" lon="1.714891">
        <ele>3.397</ele>
        <time>2021-04-04T12:29:57Z</time>
      </trkpt>
      <trkpt lat="41.212465" lon="1.714110">
        <ele>5.223</ele>
        <time>2021-04-04T12:30:16Z</time>
      </trkpt>
      <trkpt lat="41.212963" lon="1.714697">
        <ele>6.725</ele>
        <time>2021-04-04T12:30:34Z</time>
      </trkpt>
      <trkpt lat="41.213157" lon="1.714651">
        <ele>7.408</ele>
        <time>2021-04-04T12:30:39Z</time>
      </trkpt>
      <trkpt lat="41.213728" lon="1.713867">
        <ele>9.575</ele>
        <time>2021-04-04T12:31:00Z</time>
      </trkpt>
      <trkpt lat="41.213834" lon="1.713441">
        <ele>10.848</ele>
        <time>2021-04-04T12:31:12Z</time>
      </trkpt>
      <trkpt lat="41.214655" lon="1.712551">
        <ele>15.416</ele>
        <time>2021-04-04T12:31:56Z</time>
      </trkpt>
      <trkpt lat="41.215025" lon="1.711506">
        <ele>20.740</ele>
        <time>2021-04-04T12:32:38Z</time>
      </trkpt>
      <trkpt lat="41.216145" lon="1.710967">
        <ele>22.563</ele>
        <time>2021-04-04T12:33:20Z</time>
      </trkpt>
      <trkpt lat="41.216554" lon="1.711205">
        <ele>22.010</ele>
        <time>2021-04-04T12:33:35Z</time>
      </trkpt>
      <trkpt lat="41.217078" lon="1.711803">
        <ele>22.048</ele>
        <time>2021-04-04T12:33:52Z</time>
      </trkpt>
      <trkpt lat="41.217487" lon="1.711953">
        <ele>22.933</ele>
        <time>2021-04-04T12:34:03Z</time>
      </trkpt>
      <trkpt lat="41.218111" lon="1.713319">
        <ele>22.516</ele>
        <time>2021-04-04T12:34:37Z</time>
      </trkpt>
      <trkpt lat="41.218900" lon="1.712751">
        <ele>26.076</ele>
        <time>2021-04-04T12:34:59Z</time>
      </trkpt>
      <trkpt lat="41.221166" lon="1.711527">
        <ele>27.513</ele>
        <time>2021-04-04T12:36:18Z</time>
      </trkpt>
      <trkpt lat="41.221919" lon="1.713129">
        <ele>25.908</ele>
        <time>2021-04-04T12:36:49Z</time>
      </trkpt>
      <trkpt lat="41.222038" lon="1.713241">
        <ele>26.297</ele>
        <time>2021-04-04T12:36:52Z</time>
      </trkpt>
      <trkpt lat="41.222609" lon="1.713174">
        <ele>27.490</ele>
        <time>2021-04-04T12:37:12Z</time>
      </trkpt>
    </trkseg>
  </trk>
</gpx>
